Aviation Digital Data Service (ADDS)

Output produced by METARs form (1106 UTC 18 October 2017)
found at http://www.aviationweather.gov/adds/metars/
 
OSDI 181100Z 17003KT CAVOK 28/05 Q1019
TAF OSDI 1806/1912 VRB03KT CAVOK 
     TEMPO 1809/1818 24010KT 9999 FEW030
       
OSKL 181100Z 09006KT CAVOK 28/M05 Q1016
OSLK 181100Z 29006KT CAVOK 29/06 Q1016
TAF OSLK 1806/1906 24010KT CAVOK 
     TEMPO 1820/1906 08010KT
       
OSLK 181100Z 29006KT CAVOK 29/06 Q1016
TAF OSLK 1806/1906 24010KT CAVOK 
     TEMPO 1820/1906 08010KT
       
OSDI 181100Z 17003KT CAVOK 28/05 Q1019
TAF OSDI 1806/1912 VRB03KT CAVOK 
     TEMPO 1809/1818 24010KT 9999 FEW030
       
OSKL 181100Z 09006KT CAVOK 28/M05 Q1016